首页
METAR-TAF:

METAR-TAF

机场 :

Florence, 南卡罗来纳州, 美国

纬度: 34-11-16N, 经度: 079-43-51W, 海拔: 45米

当前天气观测

该预报发布于25分钟前的10:53 UTC
风速4节,风向西
温度 7°C
湿度 93%
气压 1016 hPa
能見度: 16.1公里
天空无云

METAR: KFLO 211053Z 26004KT 10SM CLR 07/06 A2999 RMK AO2 SLP153 T00720061

时间: 07:18 (11:18 UTC)

预报

该预报发布于5小时和50分钟前的05:28 UTC
预报有效从21日的 06点(UTC)到 22日的 06点(UTC)
风速8节,风向西转西南
能見度: 10公里
多云层高于4500英尺
阴天层高于8000英尺
从 21日的 1400点(UTC)
风速10节,风向西,有时为15节阵风
能見度: 10公里
散云层高于4500英尺
多云层高于9000英尺
从 21日的 2200点(UTC)
风速8节,风向西转西北
能見度: 10公里
散云层高于5000英尺
从 22日的 0200点(UTC)
风速3节,风向西转西北
能見度: 10公里
天空无云

TAF: KFLO 210528Z 2106/2206 24008KT P6SM BKN045 OVC080 FM211400 27010G15KT P6SM SCT045 BKN090 FM212200 30008KT P6SM SCT050 FM220200 30003KT P6SM SKC

超过4000个机场的气象观测和天气预报(METAR&TAF报告)。

可查询的气象台以黄色和红色小点在地图上表示。

将鼠标移到小点上方,可查看气象台名称。

然后点击查看天气观测和预报。

如需切换地图:点击带黑十字的绿色按钮放大地图;点击带横线的绿色按钮缩小地图;或者点击绿色箭头查看邻近地区的地图。


METAR-TAF: